Time;durP1;ratioP1;P1;durP2;ratioP2;P2;SDS_P1;SDS_P2;PMS_P1;PMS_P2;Temp;Humidity;BMP_temperature;BMP_pressure;BME280_temperature;BME280_humidity;BME280_pressure;Samples;Min_cycle;Max_cycle;Signal;HPM_P1;HPM_P2
2022/04/17 00:00:14;;;;;;;8.77;5.27;;;6.60;1.00;;;;;;4998973;28;20478;-81
2022/04/17 00:02:41;;;;;;;8.43;6.03;;;6.50;1.00;;;;;;5000337;28;20454;-82
2022/04/17 00:05:09;;;;;;;10.10;5.40;;;6.50;1.00;;;;;;5019711;28;20469;-81
2022/04/17 00:07:37;;;;;;;8.80;5.00;;;6.30;1.00;;;;;;5019261;28;20846;-82
2022/04/17 00:10:05;;;;;;;9.40;5.50;;;6.40;1.00;;;;;;4979732;28;20459;-81
2022/04/17 00:12:32;;;;;;;8.80;4.83;;;6.40;1.00;;;;;;4980279;28;20514;-82
2022/04/17 00:15:03;;;;;;;9.70;5.50;;;6.40;1.60;;;;;;5017311;28;20453;-82
2022/04/17 00:17:30;;;;;;;7.80;4.90;;;6.20;2.30;;;;;;5019219;28;20568;-81
2022/04/17 00:19:57;;;;;;;8.47;4.73;;;6.20;3.20;;;;;;5002162;28;20454;-81
2022/04/17 00:22:23;;;;;;;8.60;4.87;;;6.10;3.50;;;;;;5018636;28;20457;-81
2022/04/17 00:24:50;;;;;;;8.30;4.70;;;6.10;3.40;;;;;;4999377;28;20482;-81
2022/04/17 00:27:17;;;;;;;9.07;4.70;;;6.10;4.80;;;;;;4999697;28;20454;-81
2022/04/17 00:29:44;;;;;;;9.17;4.53;;;5.90;5.50;;;;;;5018280;28;20457;-81
2022/04/17 00:32:12;;;;;;;8.10;4.70;;;5.80;6.70;;;;;;5018716;28;20541;-81
2022/04/17 00:34:39;;;;;;;9.63;4.60;;;5.80;6.00;;;;;;5007935;28;20453;-81
2022/04/17 00:37:06;;;;;;;9.63;5.47;;;5.80;7.30;;;;;;5015451;28;20480;-81
2022/04/17 00:39:33;;;;;;;12.97;5.47;;;5.80;7.30;;;;;;5000826;28;20453;-81
2022/04/17 00:42:04;;;;;;;10.40;5.80;;;5.60;9.20;;;;;;5019229;28;20491;-81
2022/04/17 00:44:31;;;;;;;9.20;5.40;;;5.50;10.20;;;;;;5016279;28;20525;-81
2022/04/17 00:46:58;;;;;;;11.97;6.90;;;5.60;9.10;;;;;;4999488;28;20737;-81
2022/04/17 00:49:26;;;;;;;8.57;5.50;;;5.50;10.30;;;;;;4999151;28;20454;-81
2022/04/17 00:51:53;;;;;;;8.87;5.53;;;5.50;10.30;;;;;;4979804;28;20486;-81
2022/04/17 00:54:21;;;;;;;9.40;5.93;;;5.50;10.30;;;;;;4979678;28;20505;-81
2022/04/17 00:56:49;;;;;;;7.27;5.03;;;5.60;10.10;;;;;;5016889;28;20453;-81
2022/04/17 00:59:16;;;;;;;7.93;5.13;;;5.60;10.30;;;;;;5016359;28;20531;-81
2022/04/17 01:01:43;;;;;;;8.20;5.60;;;5.70;10.40;;;;;;4999001;28;20888;-81
2022/04/17 01:04:10;;;;;;;16.60;5.27;;;5.60;9.90;;;;;;5005386;28;20453;-81
2022/04/17 01:06:40;;;;;;;7.63;5.17;;;5.60;10.40;;;;;;5018652;28;20834;-81
2022/04/17 01:09:07;;;;;;;14.23;5.37;;;5.60;11.20;;;;;;5010446;28;20450;-81
2022/04/17 01:11:38;;;;;;;11.17;5.37;;;5.40;12.50;;;;;;4998822;28;20476;-80
2022/04/17 01:14:05;;;;;;;10.10;6.03;;;5.20;14.00;;;;;;5004793;28;20509;-81
2022/04/17 01:16:32;;;;;;;9.27;5.47;;;5.00;16.10;;;;;;5007944;28;20461;-81
2022/04/17 01:19:02;;;;;;;8.60;5.50;;;4.90;16.00;;;;;;5017492;28;20488;-81
2022/04/17 01:21:31;;;;;;;10.37;6.17;;;4.90;15.80;;;;;;5016182;28;20479;-81
2022/04/17 01:26:58;;;;;;;8.73;5.60;;;4.60;16.80;;;;;;5008084;28;20520;-81
2022/04/17 01:29:26;;;;;;;7.90;5.27;;;4.60;19.60;;;;;;4978183;28;20455;-80
2022/04/17 01:31:53;;;;;;;8.27;5.77;;;4.40;20.00;;;;;;4979152;28;20852;-81
2022/04/17 01:34:22;;;;;;;8.80;6.10;;;4.30;21.20;;;;;;4978908;28;20466;-81
2022/04/17 01:36:51;;;;;;;12.50;6.07;;;4.30;22.60;;;;;;4992757;28;20450;-81
2022/04/17 01:39:19;;;;;;;9.27;6.20;;;4.20;22.70;;;;;;4997755;28;20482;-81
2022/04/17 01:41:47;;;;;;;8.83;6.07;;;4.20;23.80;;;;;;5029652;23;20494;-80
2022/04/17 01:44:16;;;;;;;8.13;5.33;;;4.10;23.80;;;;;;5016042;28;20965;-82
2022/04/17 01:46:43;;;;;;;9.53;6.20;;;4.10;23.80;;;;;;5015211;28;20839;-81
2022/04/17 01:49:10;;;;;;;11.70;5.73;;;4.20;23.90;;;;;;5015291;28;20468;-82
2022/04/17 01:51:38;;;;;;;8.70;5.97;;;3.90;24.10;;;;;;5016408;28;20476;-80
2022/04/17 01:54:07;;;;;;;7.53;4.80;;;3.70;27.80;;;;;;5016574;28;20456;-81
2022/04/17 01:56:34;;;;;;;10.70;6.70;;;3.50;28.40;;;;;;4997087;28;20446;-81
2022/04/17 01:59:01;;;;;;;9.33;5.97;;;3.30;34.10;;;;;;4996265;28;20514;-81
2022/04/17 02:01:27;;;;;;;10.00;6.80;;;3.10;38.90;;;;;;5013947;28;20497;-81
2022/04/17 02:03:54;;;;;;;9.33;7.40;;;3.10;41.00;;;;;;5001602;28;20454;-81
2022/04/17 02:06:21;;;;;;;8.90;6.47;;;2.90;43.10;;;;;;5001461;28;20970;-81
2022/04/17 02:08:48;;;;;;;9.77;6.27;;;2.80;41.90;;;;;;4999552;28;20450;-81
2022/04/17 02:11:16;;;;;;;10.20;5.97;;;2.80;42.50;;;;;;5011330;28;21015;-81
2022/04/17 02:13:42;;;;;;;8.77;6.50;;;2.80;41.70;;;;;;5020123;28;20457;-80
2022/04/17 02:16:09;;;;;;;8.40;5.20;;;3.00;40.50;;;;;;5008904;28;20454;-81
2022/04/17 02:18:36;;;;;;;10.63;6.87;;;2.90;40.60;;;;;;4999589;28;20482;-80
2022/04/17 02:21:03;;;;;;;10.47;6.87;;;3.00;41.20;;;;;;5000637;28;20469;-81
2022/04/17 02:23:29;;;;;;;9.90;6.70;;;2.90;42.10;;;;;;4999780;28;20454;-81
2022/04/17 02:25:56;;;;;;;9.60;6.50;;;3.00;41.40;;;;;;5007650;28;20835;-80
2022/04/17 02:28:24;;;;;;;11.03;6.47;;;3.10;40.60;;;;;;5017235;28;20452;-80
2022/04/17 02:30:51;;;;;;;10.00;6.83;;;3.10;39.40;;;;;;5012396;28;20478;-81
2022/04/17 02:33:18;;;;;;;11.10;6.57;;;3.00;41.20;;;;;;5000020;28;20459;-80
2022/04/17 02:35:44;;;;;;;9.73;6.67;;;3.20;41.40;;;;;;5012695;28;20958;-81
2022/04/17 02:38:14;;;;;;;8.90;6.50;;;3.30;40.00;;;;;;5016370;28;20473;-80
2022/04/17 02:40:41;;;;;;;11.13;7.60;;;3.10;41.20;;;;;;5005850;28;20553;-81
2022/04/17 02:43:07;;;;;;;10.63;6.63;;;2.80;46.80;;;;;;4999209;28;20552;-80
2022/04/17 02:45:35;;;;;;;9.67;7.00;;;2.60;50.90;;;;;;5008191;28;20830;-80
2022/04/17 02:48:01;;;;;;;11.70;6.90;;;2.50;52.60;;;;;;5018742;28;20452;-81
2022/04/17 02:50:28;;;;;;;10.20;6.73;;;2.30;54.70;;;;;;5008265;28;20450;-80
2022/04/17 02:52:56;;;;;;;11.70;7.43;;;2.40;53.50;;;;;;5005850;28;20458;-80
2022/04/17 02:55:23;;;;;;;11.07;7.30;;;2.60;51.20;;;;;;5019667;28;20457;-81
2022/04/17 02:57:50;;;;;;;9.93;6.50;;;2.50;51.90;;;;;;5012543;28;20560;-79
2022/04/17 03:00:17;;;;;;;8.57;6.77;;;2.50;50.60;;;;;;4998976;28;20450;-81
2022/04/17 03:05:37;;;;;;;10.50;7.00;;;2.40;52.60;;;;;;4999746;28;20811;-81
2022/04/17 03:08:07;;;;;;;11.23;8.60;;;2.20;56.10;;;;;;5000521;28;20450;-81
2022/04/17 03:10:34;;;;;;;9.90;7.90;;;2.20;59.10;;;;;;4998885;28;20871;-82
2022/04/17 03:13:01;;;;;;;14.47;6.77;;;2.20;59.10;;;;;;5004962;28;20449;-81
2022/04/17 03:15:28;;;;;;;9.13;6.67;;;2.40;56.80;;;;;;5018740;28;20464;-80
2022/04/17 03:17:56;;;;;;;10.40;7.40;;;2.20;57.30;;;;;;5005439;28;20474;-81
2022/04/17 03:20:23;;;;;;;12.60;7.10;;;2.20;57.50;;;;;;5003215;28;20821;-81
2022/04/17 03:22:53;;;;;;;9.43;7.00;;;2.00;56.60;;;;;;5017927;28;20448;-84
2022/04/17 03:25:20;;;;;;;9.07;6.70;;;1.90;59.20;;;;;;5008178;28;20453;-81
2022/04/17 03:27:47;;;;;;;9.37;7.37;;;1.90;61.40;;;;;;5005057;28;20824;-80
2022/04/17 03:30:15;;;;;;;9.67;7.57;;;1.80;64.00;;;;;;5004236;28;20520;-81
2022/04/17 03:32:43;;;;;;;10.50;7.47;;;1.80;65.90;;;;;;5009692;28;20538;-81
2022/04/17 03:35:12;;;;;;;10.50;7.57;;;1.90;66.10;;;;;;4996810;28;20458;-80
2022/04/17 03:37:42;;;;;;;11.83;7.20;;;1.80;65.90;;;;;;4999395;28;20454;-82
2022/04/17 03:40:09;;;;;;;9.53;6.73;;;1.70;64.40;;;;;;4999093;28;20482;-81
2022/04/17 03:42:36;;;;;;;9.87;7.20;;;1.90;63.90;;;;;;4998404;28;20482;-80
2022/04/17 03:45:04;;;;;;;10.10;7.23;;;1.90;62.60;;;;;;4999271;28;20500;-81
2022/04/17 03:47:32;;;;;;;11.40;6.73;;;2.10;62.00;;;;;;4998539;28;20545;-82
2022/04/17 03:49:59;;;;;;;10.87;6.00;;;2.20;59.50;;;;;;4996746;28;20457;-81
2022/04/17 03:52:27;;;;;;;12.53;6.87;;;2.30;57.90;;;;;;4999018;28;20478;-81
2022/04/17 03:54:54;;;;;;;9.07;6.10;;;2.40;58.00;;;;;;4997487;28;20462;-81
2022/04/17 03:57:21;;;;;;;12.70;8.00;;;2.30;57.70;;;;;;4998347;28;20469;-81
2022/04/17 03:59:47;;;;;;;19.83;11.37;;;2.20;58.40;;;;;;4997400;28;20477;-82
2022/04/17 04:02:14;;;;;;;11.50;7.23;;;2.10;59.10;;;;;;4997320;28;20849;-82
2022/04/17 04:04:41;;;;;;;9.77;7.60;;;1.90;60.40;;;;;;4997907;28;20461;-81
2022/04/17 04:07:07;;;;;;;11.67;7.83;;;1.80;64.10;;;;;;4990910;28;20815;-81
2022/04/17 04:09:35;;;;;;;11.50;8.40;;;1.60;67.80;;;;;;4976656;28;20442;-81
2022/04/17 04:12:02;;;;;;;13.90;9.50;;;1.60;69.40;;;;;;4979498;28;20486;-81
2022/04/17 04:14:29;;;;;;;11.83;10.20;;;1.50;70.70;;;;;;4978849;28;20462;-82
2022/04/17 04:16:56;;;;;;;13.20;10.10;;;1.30;72.80;;;;;;4977233;28;20459;-81
2022/04/17 04:19:22;;;;;;;14.43;10.27;;;1.30;73.50;;;;;;4977783;28;20479;-81
2022/04/17 04:21:49;;;;;;;14.20;9.93;;;1.10;74.30;;;;;;4978445;28;20498;-82
2022/04/17 04:24:17;;;;;;;20.63;17.03;;;1.20;73.90;;;;;;4984100;28;20457;-81
2022/04/17 04:26:45;;;;;;;10.60;9.50;;;1.20;75.40;;;;;;4998182;28;20501;-80
2022/04/17 04:29:11;;;;;;;12.00;9.90;;;1.20;74.50;;;;;;4996152;28;20454;-81
2022/04/17 04:31:38;;;;;;;11.33;9.53;;;1.30;75.50;;;;;;4990158;28;20467;-81
2022/04/17 04:34:05;;;;;;;10.30;7.80;;;1.40;73.30;;;;;;4991623;28;20528;-81
2022/04/17 04:36:32;;;;;;;10.30;7.80;;;1.80;72.40;;;;;;4996057;28;20446;-81
2022/04/17 04:38:58;;;;;;;14.82;8.05;;;1.90;71.00;;;;;;4997349;28;20564;-82
2022/04/17 04:41:25;;;;;;;13.40;7.20;;;2.20;67.80;;;;;;4997941;28;20266;-81
2022/04/17 04:43:53;;;;;;;10.40;6.77;;;2.50;65.80;;;;;;4995517;28;20507;-81
2022/04/17 04:46:19;;;;;;;9.57;6.27;;;2.60;64.00;;;;;;5011889;28;20457;-81
2022/04/17 04:51:30;;;;;;;8.53;5.90;;;2.70;63.90;;;;;;5009964;28;20225;-81
2022/04/17 04:53:59;;;;;;;12.80;6.60;;;2.70;62.70;;;;;;5000096;28;21026;-80
2022/04/17 04:56:26;;;;;;;11.60;5.70;;;2.80;61.70;;;;;;5011151;28;20449;-82
2022/04/17 04:58:54;;;;;;;9.60;6.30;;;2.90;60.10;;;;;;5001720;28;20489;-83
2022/04/17 05:01:20;;;;;;;8.90;6.17;;;3.20;58.70;;;;;;5012049;28;20478;-83
2022/04/17 05:03:47;;;;;;;12.53;6.00;;;3.20;58.10;;;;;;5007781;28;20456;-83
2022/04/17 05:06:14;;;;;;;12.07;6.43;;;3.40;56.30;;;;;;5005259;28;20538;-83
2022/04/17 05:08:41;;;;;;;10.33;6.67;;;3.50;56.30;;;;;;5013291;28;20492;-82
2022/04/17 05:11:07;;;;;;;11.80;6.40;;;3.60;56.40;;;;;;4997823;28;20482;-81
2022/04/17 05:13:35;;;;;;;7.40;5.37;;;3.70;55.40;;;;;;5014465;28;20456;-81
2022/04/17 05:16:03;;;;;;;10.07;6.43;;;3.80;54.80;;;;;;5017477;28;20461;-81
2022/04/17 05:18:30;;;;;;;7.93;5.77;;;3.90;53.60;;;;;;5000373;28;20481;-81
2022/04/17 05:20:57;;;;;;;8.67;5.57;;;4.00;52.80;;;;;;5000818;28;20848;-81
2022/04/17 05:23:29;;;;;;;8.70;5.63;;;4.00;52.90;;;;;;5012366;28;20454;-81
2022/04/17 05:25:57;;;;;;;12.97;6.17;;;4.30;54.00;;;;;;5001711;28;20485;-82
2022/04/17 05:28:24;;;;;;;9.33;5.80;;;4.60;51.40;;;;;;5002001;28;20450;-81
2022/04/17 05:30:51;;;;;;;7.50;5.07;;;4.80;47.80;;;;;;4996935;28;20489;-81
2022/04/17 05:33:20;;;;;;;9.83;5.77;;;5.10;45.20;;;;;;4997622;28;20461;-82
2022/04/17 05:35:48;;;;;;;8.13;5.53;;;5.10;45.60;;;;;;4998336;28;20457;-82
2022/04/17 05:38:15;;;;;;;13.57;5.70;;;5.30;44.30;;;;;;5003179;28;20454;-82
2022/04/17 05:40:43;;;;;;;8.97;5.43;;;5.30;43.50;;;;;;4994995;28;20501;-80
2022/04/17 05:43:11;;;;;;;6.90;5.13;;;5.40;44.30;;;;;;4998130;28;20461;-81
2022/04/17 05:45:38;;;;;;;11.53;5.50;;;5.20;43.70;;;;;;5004824;28;20446;-82
2022/04/17 05:48:07;;;;;;;8.07;5.03;;;5.30;44.20;;;;;;5005926;28;20442;-81
2022/04/17 05:50:35;;;;;;;6.93;5.30;;;5.30;45.50;;;;;;5005729;28;20450;-81
2022/04/17 05:53:02;;;;;;;8.17;5.70;;;5.20;46.40;;;;;;5002158;28;20450;-82
2022/04/17 05:55:29;;;;;;;13.03;5.70;;;5.40;46.10;;;;;;4999312;28;20457;-82
2022/04/17 05:57:55;;;;;;;8.20;4.97;;;5.40;44.60;;;;;;4986860;28;20445;-82
2022/04/17 06:00:22;;;;;;;8.23;5.10;;;5.50;44.80;;;;;;5001666;28;20485;-81
2022/04/17 06:02:49;;;;;;;8.87;5.30;;;5.60;44.30;;;;;;5000592;28;20461;-81
2022/04/17 06:05:19;;;;;;;8.80;5.57;;;5.60;45.70;;;;;;4999418;28;20450;-81
2022/04/17 06:07:47;;;;;;;7.90;4.77;;;5.70;44.90;;;;;;5006905;28;20457;-82
2022/04/17 06:10:15;;;;;;;7.63;5.57;;;5.80;46.70;;;;;;5012595;28;20450;-82
2022/04/17 06:12:43;;;;;;;9.73;4.80;;;5.90;45.20;;;;;;5008150;28;20493;-82
2022/04/17 06:15:10;;;;;;;7.50;4.73;;;5.90;45.20;;;;;;5011147;28;20469;-80
2022/04/17 06:17:39;;;;;;;6.73;5.03;;;6.10;44.40;;;;;;5020760;28;20481;-81
2022/04/17 06:20:07;;;;;;;7.37;4.53;;;6.10;44.00;;;;;;5016992;28;20490;-79
2022/04/17 06:22:35;;;;;;;9.80;5.33;;;6.20;44.30;;;;;;5024720;28;20484;-81
2022/04/17 06:25:05;;;;;;;8.00;4.60;;;6.30;43.40;;;;;;5027385;28;20445;-81
2022/04/17 06:27:39;;;;;;;10.03;4.93;;;6.40;42.00;;;;;;4997107;28;20458;-82
2022/04/17 06:30:11;;;;;;;9.83;5.37;;;6.50;41.80;;;;;;4998569;28;20462;-83
2022/04/17 06:32:49;;;;;;;8.77;4.40;;;6.60;42.10;;;;;;4992080;28;20474;-83
2022/04/17 06:35:17;;;;;;;7.57;4.67;;;6.80;40.60;;;;;;5010340;28;20476;-84
2022/04/17 06:37:51;;;;;;;6.00;4.17;;;7.00;39.60;;;;;;5017505;28;20459;-82
2022/04/17 06:40:21;;;;;;;6.10;4.10;;;7.00;36.70;;;;;;5002947;28;20512;-82
2022/04/17 06:42:50;;;;;;;7.40;4.00;;;7.20;37.00;;;;;;5005819;28;20446;-82
2022/04/17 06:45:17;;;;;;;8.13;4.13;;;7.40;34.10;;;;;;4997692;28;20460;-82
2022/04/17 06:47:44;;;;;;;6.83;3.43;;;7.60;32.70;;;;;;5007823;28;20457;-80
2022/04/17 06:50:12;;;;;;;8.27;2.97;;;7.60;30.80;;;;;;4995591;28;20446;-81
2022/04/17 06:52:39;;;;;;;6.00;3.80;;;7.80;28.00;;;;;;5008337;28;20470;-82
2022/04/17 06:55:08;;;;;;;9.77;3.50;;;7.90;29.80;;;;;;5007596;28;20461;-82
2022/04/17 06:57:37;;;;;;;6.50;3.40;;;8.00;27.30;;;;;;4997178;28;20454;-82
2022/04/17 07:00:06;;;;;;;6.60;3.13;;;8.10;26.50;;;;;;5004848;28;20527;-81
2022/04/17 07:02:32;;;;;;;5.47;2.90;;;8.10;29.10;;;;;;5017405;28;20476;-82
2022/04/17 07:04:59;;;;;;;8.43;3.63;;;8.20;28.80;;;;;;5011697;28;20457;-82
2022/04/17 07:07:26;;;;;;;5.63;3.03;;;8.30;28.00;;;;;;5016646;28;20448;-82
2022/04/17 07:09:54;;;;;;;6.57;3.90;;;8.30;26.30;;;;;;5016862;28;20456;-81
2022/04/17 07:12:21;;;;;;;6.20;3.23;;;8.40;26.70;;;;;;5010080;28;20509;-85
2022/04/17 07:14:49;;;;;;;7.87;2.87;;;8.50;26.70;;;;;;5018360;28;20525;-82
2022/04/17 07:17:16;;;;;;;6.00;3.13;;;8.70;26.30;;;;;;5019046;28;20456;-82
2022/04/17 07:19:43;;;;;;;6.00;3.20;;;8.60;25.70;;;;;;5005750;28;20488;-81
2022/04/17 07:22:10;;;;;;;7.67;3.20;;;8.80;23.40;;;;;;4995927;28;20585;-80
2022/04/17 07:24:39;;;;;;;7.60;3.70;;;8.80;23.40;;;;;;5013406;28;20544;-82
2022/04/17 07:27:06;;;;;;;6.70;3.97;;;8.90;23.60;;;;;;5016854;28;20460;-82
2022/04/17 07:29:33;;;;;;;7.37;3.10;;;9.00;22.30;;;;;;5010057;28;20453;-83
2022/04/17 07:32:01;;;;;;;7.17;4.00;;;9.00;22.10;;;;;;5000213;28;20554;-82
2022/04/17 07:34:27;;;;;;;6.87;3.27;;;9.10;21.90;;;;;;5003335;28;21077;-82
2022/04/17 07:36:54;;;;;;;7.37;3.87;;;9.20;23.70;;;;;;5019068;28;20457;-82
2022/04/17 07:39:22;;;;;;;8.30;3.50;;;9.40;22.20;;;;;;5011249;28;20485;-83
2022/04/17 07:41:49;;;;;;;5.03;2.83;;;9.40;22.20;;;;;;5012467;23;20564;-82
2022/04/17 07:44:16;;;;;;;7.20;3.70;;;9.40;20.80;;;;;;4997266;28;20464;-82
2022/04/17 07:46:43;;;;;;;5.20;3.03;;;9.50;21.10;;;;;;4998320;28;20202;-83
2022/04/17 07:49:11;;;;;;;6.50;3.97;;;9.60;21.50;;;;;;4996647;28;20454;-82
2022/04/17 07:51:38;;;;;;;6.23;3.60;;;9.70;20.40;;;;;;4993037;28;20839;-83
2022/04/17 07:54:05;;;;;;;6.70;3.20;;;9.90;18.90;;;;;;4982179;28;20454;-82
2022/04/17 07:56:32;;;;;;;9.00;4.07;;;10.10;17.20;;;;;;4986425;28;20462;-80
2022/04/17 07:58:58;;;;;;;7.30;3.40;;;10.50;16.20;;;;;;4985524;28;20454;-82
2022/04/17 08:01:27;;;;;;;6.10;2.87;;;10.70;15.30;;;;;;4996090;28;20481;-83
2022/04/17 08:03:54;;;;;;;9.87;4.00;;;11.20;15.70;;;;;;4982128;28;21194;-83
2022/04/17 08:06:22;;;;;;;9.17;3.20;;;11.40;16.60;;;;;;4976389;28;20451;-83
2022/04/17 08:08:51;;;;;;;13.80;3.60;;;11.60;12.50;;;;;;4975386;28;20447;-84
2022/04/17 08:11:18;;;;;;;10.97;3.50;;;12.00;13.70;;;;;;4979270;28;20473;-83
2022/04/17 08:13:46;;;;;;;6.07;3.40;;;12.20;11.00;;;;;;4987337;28;20964;-83
2022/04/17 08:16:13;;;;;;;7.40;2.90;;;12.30;11.60;;;;;;4980620;28;20450;-83
2022/04/17 08:18:40;;;;;;;6.87;3.13;;;12.50;7.60;;;;;;4978823;28;20463;-82
2022/04/17 08:21:07;;;;;;;7.50;2.93;;;12.50;8.20;;;;;;4975228;28;20517;-82
2022/04/17 08:23:37;;;;;;;6.83;3.60;;;12.70;7.80;;;;;;4977631;28;20450;-81
2022/04/17 08:26:04;;;;;;;8.40;3.10;;;12.90;8.30;;;;;;4987792;28;20951;-81
2022/04/17 08:28:32;;;;;;;5.93;2.60;;;13.20;6.60;;;;;;4979086;28;20454;-82
2022/04/17 08:30:58;;;;;;;7.70;3.20;;;13.20;6.20;;;;;;4981110;28;20541;-82
2022/04/17 08:33:26;;;;;;;5.67;3.00;;;13.20;4.30;;;;;;4984640;28;20561;-82
2022/04/17 08:35:53;;;;;;;6.97;3.00;;;13.50;3.70;;;;;;4975558;28;20546;-82
2022/04/17 08:38:21;;;;;;;6.13;2.90;;;13.60;3.90;;;;;;4989451;28;20462;-81
2022/04/17 08:40:50;;;;;;;6.83;3.60;;;13.80;3.40;;;;;;4968940;28;20503;-80
2022/04/17 08:43:21;;;;;;;12.60;3.80;;;14.00;2.10;;;;;;4981782;28;20470;-82
2022/04/17 08:45:50;;;;;;;8.03;3.33;;;14.00;1.60;;;;;;4989373;28;20466;-82
2022/04/17 08:48:17;;;;;;;9.97;2.70;;;14.10;2.20;;;;;;4974689;28;20561;-82
2022/04/17 08:50:44;;;;;;;5.83;2.80;;;14.30;2.30;;;;;;4971199;28;20884;-81
2022/04/17 08:53:16;;;;;;;6.67;3.13;;;14.70;1.90;;;;;;4973855;28;20467;-82
2022/04/17 08:55:43;;;;;;;10.10;3.13;;;14.90;1.00;;;;;;4972619;28;20484;-82
2022/04/17 08:58:12;;;;;;;10.93;3.10;;;15.00;1.00;;;;;;4978265;28;20899;-82
2022/04/17 09:00:39;;;;;;;5.63;3.30;;;15.20;1.00;;;;;;4978415;28;20993;-81
2022/04/17 09:03:08;;;;;;;7.47;3.17;;;15.30;1.00;;;;;;4974196;28;20483;-81
2022/04/17 09:05:37;;;;;;;6.40;2.80;;;15.60;1.00;;;;;;4978856;28;20450;-81
2022/04/17 09:08:14;;;;;;;6.40;2.63;;;15.50;1.00;;;;;;4976703;28;20507;-82
2022/04/17 09:10:41;;;;;;;8.20;2.87;;;15.80;1.00;;;;;;4980411;28;20453;-82
2022/04/17 09:13:08;;;;;;;6.30;2.73;;;16.00;1.00;;;;;;4963351;28;20863;-81
2022/04/17 09:15:37;;;;;;;4.97;2.53;;;16.30;1.00;;;;;;4978867;28;20451;-82
2022/04/17 09:18:07;;;;;;;8.20;2.53;;;16.50;1.00;;;;;;4992287;28;20463;-84
2022/04/17 09:20:34;;;;;;;8.13;3.03;;;16.10;1.00;;;;;;4993960;28;21007;-83
2022/04/17 09:23:02;;;;;;;5.97;2.53;;;16.40;1.00;;;;;;4976631;28;20471;-81
2022/04/17 09:25:29;;;;;;;6.87;2.50;;;16.60;1.00;;;;;;4981847;28;20512;-82
2022/04/17 09:27:58;;;;;;;5.93;2.47;;;16.70;1.00;;;;;;4986112;28;20465;-82
2022/04/17 09:30:26;;;;;;;6.20;2.53;;;16.60;1.00;;;;;;4974971;28;20466;-83
2022/04/17 09:32:54;;;;;;;8.17;3.37;;;17.10;1.00;;;;;;4976010;28;20859;-83
2022/04/17 09:35:23;;;;;;;5.50;2.57;;;17.00;1.00;;;;;;4975389;28;20458;-82
2022/04/17 09:37:50;;;;;;;5.63;2.50;;;17.50;1.00;;;;;;4988707;28;20962;-82
2022/04/17 09:40:20;;;;;;;9.17;2.60;;;17.50;1.00;;;;;;4992488;28;20887;-81
2022/04/17 09:42:49;;;;;;;7.70;3.37;;;17.70;1.00;;;;;;4984216;28;21000;-82
2022/04/17 09:45:15;;;;;;;6.40;3.03;;;17.80;1.00;;;;;;4986855;28;20817;-82
2022/04/17 09:47:57;;;;;;;6.63;3.43;;;18.20;1.00;;;;;;4980279;28;20469;-84
2022/04/17 09:50:32;;;;;;;5.90;2.60;;;18.20;1.00;;;;;;4986062;28;20460;-82
2022/04/17 09:53:03;;;;;;;6.17;2.77;;;18.10;1.00;;;;;;4968756;28;20549;-82
2022/04/17 09:55:31;;;;;;;5.30;2.40;;;18.40;1.00;;;;;;4978860;28;20843;-82
2022/04/17 09:58:00;;;;;;;6.10;2.60;;;18.50;1.00;;;;;;4973665;28;20998;-82
2022/04/17 10:00:27;;;;;;;6.73;2.50;;;18.70;1.00;;;;;;4974177;28;20482;-82
2022/04/17 10:02:53;;;;;;;4.80;2.10;;;19.00;1.00;;;;;;4981828;28;20482;-82
2022/04/17 10:05:22;;;;;;;4.50;2.40;;;19.80;1.00;;;;;;4982901;28;20458;-82
2022/04/17 10:07:50;;;;;;;7.07;2.50;;;19.50;1.00;;;;;;4981519;28;20463;-82
2022/04/17 10:10:18;;;;;;;6.93;2.97;;;19.50;1.00;;;;;;4980638;28;20450;-82
2022/04/17 10:12:46;;;;;;;5.13;2.33;;;19.00;1.00;;;;;;4978299;28;20995;-82
2022/04/17 10:15:14;;;;;;;9.37;2.80;;;19.50;1.00;;;;;;4977489;28;20458;-82
2022/04/17 10:17:45;;;;;;;7.00;2.80;;;19.80;1.00;;;;;;4975993;28;20462;-82
2022/04/17 10:20:13;;;;;;;7.03;2.33;;;20.10;1.00;;;;;;4984927;28;21024;-82
2022/04/17 10:22:43;;;;;;;8.20;3.33;;;19.80;1.00;;;;;;4980102;28;20852;-82
2022/04/17 10:25:10;;;;;;;5.10;2.70;;;20.30;1.00;;;;;;4988791;28;20457;-81
2022/04/17 10:27:42;;;;;;;8.33;3.93;;;20.50;1.00;;;;;;4978181;28;20458;-82
2022/04/17 10:30:15;;;;;;;8.10;2.63;;;20.60;1.00;;;;;;4980487;28;20459;-82
2022/04/17 10:33:08;;;;;;;5.50;2.30;;;20.20;1.00;;;;;;4977907;28;20520;-83
2022/04/17 10:35:49;;;;;;;6.40;2.27;;;20.30;1.00;;;;;;4976180;28;20472;-83
2022/04/17 10:38:24;;;;;;;6.40;2.33;;;20.60;1.00;;;;;;4978580;28;20845;-82
2022/04/17 10:40:55;;;;;;;5.00;1.93;;;21.20;1.00;;;;;;4976896;28;20493;-83
2022/04/17 10:43:22;;;;;;;5.27;2.40;;;20.90;1.00;;;;;;4974850;28;20461;-81
2022/04/17 10:46:08;;;;;;;5.93;2.53;;;20.90;1.00;;;;;;4977576;28;20538;-82
2022/04/17 10:48:43;;;;;;;4.77;2.13;;;21.60;1.00;;;;;;4996484;28;20458;-83
2022/04/17 10:51:15;;;;;;;5.60;1.97;;;22.30;1.00;;;;;;4984068;28;20540;-82
2022/04/17 10:53:53;;;;;;;4.60;2.00;;;21.50;1.00;;;;;;4984987;28;20456;-82
2022/04/17 10:56:21;;;;;;;5.30;2.33;;;22.60;1.00;;;;;;4984959;28;20479;-83
2022/04/17 10:58:52;;;;;;;7.57;2.70;;;22.50;1.00;;;;;;4982488;28;20485;-82
2022/04/17 11:01:53;;;;;;;7.00;2.17;;;22.10;1.00;;;;;;4986191;28;20465;-82
2022/04/17 11:04:22;;;;;;;4.70;1.87;;;22.80;1.00;;;;;;4978954;28;20450;-81
2022/04/17 11:06:53;;;;;;;5.40;2.00;;;21.80;1.00;;;;;;4991064;28;20453;-82
2022/04/17 11:09:23;;;;;;;4.83;1.73;;;21.70;1.00;;;;;;4994784;28;20511;-82
2022/04/17 11:11:50;;;;;;;4.50;1.60;;;22.30;1.00;;;;;;4991401;28;20478;-83
2022/04/17 11:14:20;;;;;;;5.03;2.20;;;22.00;1.00;;;;;;4994441;28;20553;-82
2022/04/17 11:16:50;;;;;;;5.80;2.37;;;22.60;1.00;;;;;;4981971;28;20547;-83
2022/04/17 11:19:19;;;;;;;4.70;1.73;;;23.40;1.00;;;;;;4973453;28;20470;-82
2022/04/17 11:21:49;;;;;;;5.40;2.27;;;23.50;1.00;;;;;;4987226;28;20477;-82
2022/04/17 11:24:16;;;;;;;4.77;1.57;;;23.30;1.00;;;;;;4993890;28;20460;-81
2022/04/17 11:27:10;;;;;;;7.57;2.40;;;22.30;1.00;;;;;;4981671;28;20455;-79
2022/04/17 11:29:39;;;;;;;5.77;2.30;;;22.70;1.00;;;;;;4974206;28;20455;-82
2022/04/17 11:32:46;;;;;;;4.60;2.00;;;23.30;1.00;;;;;;4986768;28;21242;-82
2022/04/17 11:35:15;;;;;;;6.90;2.13;;;23.80;1.00;;;;;;4972374;28;20460;-82
2022/04/17 11:37:51;;;;;;;5.93;2.20;;;23.70;1.00;;;;;;4974292;28;20451;-82
2022/04/17 11:40:20;;;;;;;5.90;2.03;;;23.50;1.00;;;;;;4971701;28;21029;-82
2022/04/17 11:42:49;;;;;;;6.87;2.10;;;23.40;1.00;;;;;;4992955;28;21467;-82
2022/04/17 11:45:18;;;;;;;6.70;2.37;;;23.70;1.00;;;;;;4993813;28;20450;-82
2022/04/17 11:47:47;;;;;;;5.13;2.00;;;23.80;1.00;;;;;;4992092;28;20943;-82
2022/04/17 11:50:20;;;;;;;5.07;1.90;;;24.20;1.00;;;;;;4991068;28;21025;-81
2022/04/17 11:52:50;;;;;;;5.63;1.80;;;24.80;1.00;;;;;;4956848;29;20476;-82
2022/04/17 11:55:17;;;;;;;7.73;1.77;;;24.20;1.00;;;;;;4961026;28;20451;-82
2022/04/17 11:57:43;;;;;;;7.37;1.60;;;24.10;1.00;;;;;;4975789;28;20455;-82
2022/04/17 12:00:13;;;;;;;4.67;2.00;;;24.80;1.00;;;;;;4954438;29;20830;-81
2022/04/17 12:02:40;;;;;;;5.53;1.70;;;24.60;1.00;;;;;;4983177;28;20462;-83
2022/04/17 12:05:09;;;;;;;5.67;1.63;;;24.90;1.00;;;;;;4993040;28;21133;-83
2022/04/17 12:07:36;;;;;;;4.60;2.00;;;25.00;1.00;;;;;;4988662;28;20462;-82
2022/04/17 12:10:07;;;;;;;6.47;2.20;;;25.00;1.00;;;;;;4981044;28;20966;-83
2022/04/17 12:12:35;;;;;;;6.00;1.80;;;24.70;1.00;;;;;;4979994;28;20486;-83
2022/04/17 12:15:03;;;;;;;4.97;2.00;;;25.90;1.00;;;;;;4976976;28;20931;-83
2022/04/17 12:17:32;;;;;;;5.30;1.70;;;25.70;1.00;;;;;;4979378;28;20462;-83
2022/04/17 12:19:59;;;;;;;4.97;2.10;;;26.50;1.00;;;;;;4973289;28;20462;-83
2022/04/17 12:22:27;;;;;;;4.07;1.60;;;25.80;1.00;;;;;;4976210;28;20622;-84
2022/04/17 12:24:54;;;;;;;5.70;1.90;;;25.70;1.00;;;;;;4978889;28;20477;-83
2022/04/17 12:27:22;;;;;;;5.80;1.80;;;25.90;1.00;;;;;;4978874;28;20948;-83
2022/04/17 12:29:49;;;;;;;4.60;1.83;;;26.40;1.00;;;;;;4975448;28;20474;-83
2022/04/17 12:32:16;;;;;;;4.80;1.70;;;25.90;1.00;;;;;;4978897;28;20490;-83
2022/04/17 12:34:46;;;;;;;4.50;1.47;;;26.40;1.00;;;;;;4977671;28;20465;-83
2022/04/17 12:37:21;;;;;;;6.20;2.13;;;26.40;1.00;;;;;;4978143;28;20904;-83
2022/04/17 12:39:48;;;;;;;6.43;2.27;;;27.10;1.00;;;;;;4977218;28;20459;-83
2022/04/17 12:42:18;;;;;;;4.57;1.50;;;26.50;1.00;;;;;;4976752;28;20868;-83
2022/04/17 12:44:47;;;;;;;4.80;2.10;;;26.60;1.00;;;;;;4978130;28;20462;-83
2022/04/17 12:47:15;;;;;;;4.70;1.90;;;26.50;1.00;;;;;;4976708;28;20494;-83
2022/04/17 12:49:43;;;;;;;5.87;1.70;;;26.50;1.00;;;;;;4974850;28;20465;-83
2022/04/17 12:52:21;;;;;;;4.13;1.43;;;25.40;1.00;;;;;;4978046;28;20487;-83
2022/04/17 12:54:48;;;;;;;5.20;1.73;;;26.40;1.00;;;;;;4975832;28;20455;-83
2022/04/17 12:57:21;;;;;;;7.10;1.70;;;26.20;1.00;;;;;;4975733;28;20885;-83
2022/04/17 12:59:49;;;;;;;5.03;1.80;;;26.00;1.00;;;;;;4975886;28;20458;-83
2022/04/17 13:02:18;;;;;;;7.23;1.70;;;26.40;1.00;;;;;;4977989;28;20482;-83
2022/04/17 13:04:47;;;;;;;5.10;1.80;;;26.60;1.00;;;;;;4976357;28;20447;-83
2022/04/17 13:07:15;;;;;;;5.23;1.87;;;26.40;1.00;;;;;;4975875;28;20481;-83
2022/04/17 13:09:53;;;;;;;7.63;1.77;;;26.30;1.00;;;;;;4977643;28;20433;-83